sensor_id;sensor_type;location;lat;lon;timestamp;pressure;altitude;pressure_sealevel;temperature;humidity
70009;BME280;59542;37.950;-122.338;2023-01-27T00:00:20;102651.78;;;18.76;33.95
70009;BME280;59542;37.950;-122.338;2023-01-27T00:02:47;102648.50;;;18.54;33.77
70009;BME280;59542;37.950;-122.338;2023-01-27T00:05:14;102651.06;;;18.49;34.25
70009;BME280;59542;37.950;-122.338;2023-01-27T00:07:41;102651.59;;;18.64;33.92
70009;BME280;59542;37.950;-122.338;2023-01-27T00:10:16;102645.78;;;18.54;34.09
70009;BME280;59542;37.950;-122.338;2023-01-27T00:12:44;102658.66;;;18.79;33.93
70009;BME280;59542;37.950;-122.338;2023-01-27T00:15:30;102654.94;;;18.60;34.87
70009;BME280;59542;37.950;-122.338;2023-01-27T00:17:57;102650.94;;;18.76;34.00
70009;BME280;59542;37.950;-122.338;2023-01-27T00:20:24;102648.50;;;18.61;34.55
70009;BME280;59542;37.950;-122.338;2023-01-27T00:25:58;102644.03;;;18.28;35.11
70009;BME280;59542;37.950;-122.338;2023-01-27T00:28:26;102646.94;;;18.33;35.08
70009;BME280;59542;37.950;-122.338;2023-01-27T00:30:56;102645.06;;;18.20;34.53
70009;BME280;59542;37.950;-122.338;2023-01-27T00:33:23;102643.84;;;18.23;35.07
70009;BME280;59542;37.950;-122.338;2023-01-27T00:38:30;102648.72;;;17.88;36.20
70009;BME280;59542;37.950;-122.338;2023-01-27T00:40:57;102648.69;;;17.81;36.07
70009;BME280;59542;37.950;-122.338;2023-01-27T00:43:42;102640.78;;;17.86;36.05
70009;BME280;59542;37.950;-122.338;2023-01-27T00:46:08;102641.41;;;17.75;36.24
70009;BME280;59542;37.950;-122.338;2023-01-27T00:48:35;102631.63;;;17.81;36.27
70009;BME280;59542;37.950;-122.338;2023-01-27T00:51:01;102635.16;;;17.55;36.83
70009;BME280;59542;37.950;-122.338;2023-01-27T00:53:28;102634.13;;;17.49;36.93
70009;BME280;59542;37.950;-122.338;2023-01-27T00:55:54;102631.63;;;17.48;37.30
70009;BME280;59542;37.950;-122.338;2023-01-27T00:58:26;102634.13;;;17.62;37.14
70009;BME280;59542;37.950;-122.338;2023-01-27T01:00:57;102631.63;;;17.94;36.13
70009;BME280;59542;37.950;-122.338;2023-01-27T01:03:30;102646.81;;;17.68;36.52
70009;BME280;59542;37.950;-122.338;2023-01-27T01:06:02;102650.38;;;17.62;36.96
70009;BME280;59542;37.950;-122.338;2023-01-27T01:08:33;102644.09;;;17.68;36.66
70009;BME280;59542;37.950;-122.338;2023-01-27T01:10:59;102650.16;;;17.57;36.43
70009;BME280;59542;37.950;-122.338;2023-01-27T01:13:26;102650.34;;;17.42;37.57
70009;BME280;59542;37.950;-122.338;2023-01-27T01:15:53;102651.00;;;17.51;37.31
70009;BME280;59542;37.950;-122.338;2023-01-27T01:18:20;102645.78;;;17.56;37.00
70009;BME280;59542;37.950;-122.338;2023-01-27T01:20:46;102649.97;;;17.72;36.70
70009;BME280;59542;37.950;-122.338;2023-01-27T01:23:14;102655.78;;;17.62;37.41
70009;BME280;59542;37.950;-122.338;2023-01-27T01:25:40;102651.63;;;17.66;37.30
70009;BME280;59542;37.950;-122.338;2023-01-27T01:28:08;102647.44;;;17.71;37.21
70009;BME280;59542;37.950;-122.338;2023-01-27T01:30:35;102650.78;;;17.53;37.97
70009;BME280;59542;37.950;-122.338;2023-01-27T01:33:03;102647.22;;;17.52;37.78
70009;BME280;59542;37.950;-122.338;2023-01-27T01:35:29;102654.31;;;17.40;37.86
70009;BME280;59542;37.950;-122.338;2023-01-27T01:37:56;102655.75;;;17.23;38.29
70009;BME280;59542;37.950;-122.338;2023-01-27T01:40:22;102657.38;;;16.97;39.13
70009;BME280;59542;37.950;-122.338;2023-01-27T01:42:54;102654.03;;;16.95;39.14
70009;BME280;59542;37.950;-122.338;2023-01-27T01:45:42;102658.50;;;16.68;39.53
70009;BME280;59542;37.950;-122.338;2023-01-27T01:50:43;102649.31;;;16.56;40.17
70009;BME280;59542;37.950;-122.338;2023-01-27T01:53:11;102657.56;;;16.48;40.87
70009;BME280;59542;37.950;-122.338;2023-01-27T01:55:38;102659.31;;;16.62;40.88
70009;BME280;59542;37.950;-122.338;2023-01-27T01:58:07;102654.81;;;16.34;41.64
70009;BME280;59542;37.950;-122.338;2023-01-27T02:00:34;102655.25;;;16.03;42.75
70009;BME280;59542;37.950;-122.338;2023-01-27T02:03:02;102659.44;;;16.06;42.93
70009;BME280;59542;37.950;-122.338;2023-01-27T02:05:35;102665.31;;;16.16;43.18
70009;BME280;59542;37.950;-122.338;2023-01-27T02:08:27;102664.41;;;16.09;43.30
70009;BME280;59542;37.950;-122.338;2023-01-27T02:10:54;102667.94;;;15.75;43.91
70009;BME280;59542;37.950;-122.338;2023-01-27T02:13:21;102658.63;;;15.56;44.55
70009;BME280;59542;37.950;-122.338;2023-01-27T02:15:50;102657.31;;;15.52;44.69
70009;BME280;59542;37.950;-122.338;2023-01-27T02:18:18;102659.56;;;15.48;44.95
70009;BME280;59542;37.950;-122.338;2023-01-27T02:20:52;102666.06;;;15.54;45.01
70009;BME280;59542;37.950;-122.338;2023-01-27T02:28:25;102667.41;;;15.65;45.12
70009;BME280;59542;37.950;-122.338;2023-01-27T02:30:51;102668.31;;;15.29;45.64
70009;BME280;59542;37.950;-122.338;2023-01-27T02:33:18;102676.31;;;15.16;45.72
70009;BME280;59542;37.950;-122.338;2023-01-27T02:38:22;102676.16;;;14.66;47.25
70009;BME280;59542;37.950;-122.338;2023-01-27T02:40:52;102676.44;;;14.57;47.42
70009;BME280;59542;37.950;-122.338;2023-01-27T02:43:20;102683.22;;;14.52;47.41
70009;BME280;59542;37.950;-122.338;2023-01-27T02:45:46;102672.50;;;14.44;47.68
70009;BME280;59542;37.950;-122.338;2023-01-27T02:48:13;102668.97;;;14.29;48.38
70009;BME280;59542;37.950;-122.338;2023-01-27T02:50:41;102675.41;;;14.28;47.96
70009;BME280;59542;37.950;-122.338;2023-01-27T02:53:07;102673.53;;;14.14;48.59
70009;BME280;59542;37.950;-122.338;2023-01-27T02:55:33;102664.59;;;14.13;48.46
70009;BME280;59542;37.950;-122.338;2023-01-27T02:58:00;102662.00;;;14.20;48.65
70009;BME280;59542;37.950;-122.338;2023-01-27T03:00:26;102658.56;;;13.96;49.00
70009;BME280;59542;37.950;-122.338;2023-01-27T03:02:52;102662.00;;;13.90;49.02
70009;BME280;59542;37.950;-122.338;2023-01-27T03:05:18;102665.13;;;13.79;49.65
70009;BME280;59542;37.950;-122.338;2023-01-27T03:07:45;102665.47;;;13.61;50.45
70009;BME280;59542;37.950;-122.338;2023-01-27T03:10:11;102653.50;;;13.64;49.86
70009;BME280;59542;37.950;-122.338;2023-01-27T03:12:37;102658.81;;;13.87;50.34
70009;BME280;59542;37.950;-122.338;2023-01-27T03:15:04;102655.53;;;13.77;50.08
70009;BME280;59542;37.950;-122.338;2023-01-27T03:17:49;102655.16;;;13.27;51.15
70009;BME280;59542;37.950;-122.338;2023-01-27T03:20:33;102654.44;;;13.33;50.85
70009;BME280;59542;37.950;-122.338;2023-01-27T03:22:59;102654.53;;;13.40;50.71
70009;BME280;59542;37.950;-122.338;2023-01-27T03:25:25;102656.56;;;13.38;51.21
70009;BME280;59542;37.950;-122.338;2023-01-27T03:27:52;102650.13;;;13.24;51.11
70009;BME280;59542;37.950;-122.338;2023-01-27T03:30:18;102644.47;;;13.11;51.54
70009;BME280;59542;37.950;-122.338;2023-01-27T03:32:44;102659.28;;;13.07;51.61
70009;BME280;59542;37.950;-122.338;2023-01-27T03:35:15;102651.25;;;12.99;51.55
70009;BME280;59542;37.950;-122.338;2023-01-27T03:37:42;102651.00;;;12.85;52.34
70009;BME280;59542;37.950;-122.338;2023-01-27T03:40:26;102651.09;;;13.00;51.48
70009;BME280;59542;37.950;-122.338;2023-01-27T03:43:11;102664.88;;;12.97;51.22
70009;BME280;59542;37.950;-122.338;2023-01-27T03:45:56;102661.88;;;12.92;51.60
70009;BME280;59542;37.950;-122.338;2023-01-27T03:48:41;102663.88;;;12.67;52.13
70009;BME280;59542;37.950;-122.338;2023-01-27T03:51:09;102655.84;;;12.59;52.23
70009;BME280;59542;37.950;-122.338;2023-01-27T03:53:36;102658.44;;;12.75;52.51
70009;BME280;59542;37.950;-122.338;2023-01-27T03:56:03;102652.72;;;12.47;52.82
70009;BME280;59542;37.950;-122.338;2023-01-27T03:58:33;102645.22;;;12.34;52.93
70009;BME280;59542;37.950;-122.338;2023-01-27T04:01:06;102650.13;;;12.23;53.27
70009;BME280;59542;37.950;-122.338;2023-01-27T04:03:34;102653.47;;;12.33;53.31
70009;BME280;59542;37.950;-122.338;2023-01-27T04:06:21;102645.31;;;11.94;54.07
70009;BME280;59542;37.950;-122.338;2023-01-27T04:09:07;102640.97;;;12.01;53.76
70009;BME280;59542;37.950;-122.338;2023-01-27T04:11:33;102636.56;;;12.08;53.66
70009;BME280;59542;37.950;-122.338;2023-01-27T04:14:18;102631.75;;;11.95;53.44
70009;BME280;59542;37.950;-122.338;2023-01-27T04:16:45;102628.38;;;11.77;54.33
70009;BME280;59542;37.950;-122.338;2023-01-27T04:19:11;102622.22;;;11.84;53.83
70009;BME280;59542;37.950;-122.338;2023-01-27T04:21:38;102623.50;;;11.80;53.82
70009;BME280;59542;37.950;-122.338;2023-01-27T04:24:05;102622.53;;;11.65;54.26
70009;BME280;59542;37.950;-122.338;2023-01-27T04:26:45;102628.75;;;11.41;54.77
70009;BME280;59542;37.950;-122.338;2023-01-27T04:29:12;102625.72;;;10.45;57.94
70009;BME280;59542;37.950;-122.338;2023-01-27T04:31:39;102622.47;;;10.67;57.33
70009;BME280;59542;37.950;-122.338;2023-01-27T04:34:05;102617.34;;;10.14;58.68
70009;BME280;59542;37.950;-122.338;2023-01-27T04:36:32;102617.56;;;10.20;58.69
70009;BME280;59542;37.950;-122.338;2023-01-27T04:38:58;102619.19;;;10.47;57.89
70009;BME280;59542;37.950;-122.338;2023-01-27T04:41:24;102617.72;;;10.53;57.69
70009;BME280;59542;37.950;-122.338;2023-01-27T04:43:51;102621.97;;;10.80;56.92
70009;BME280;59542;37.950;-122.338;2023-01-27T04:46:17;102620.28;;;10.63;57.04
70009;BME280;59542;37.950;-122.338;2023-01-27T04:48:43;102630.38;;;10.35;57.66
70009;BME280;59542;37.950;-122.338;2023-01-27T04:51:09;102638.97;;;10.54;57.01
70009;BME280;59542;37.950;-122.338;2023-01-27T04:53:36;102636.69;;;10.25;57.96
70009;BME280;59542;37.950;-122.338;2023-01-27T04:56:10;102635.41;;;10.12;58.68
70009;BME280;59542;37.950;-122.338;2023-01-27T04:58:40;102633.72;;;10.37;57.82
70009;BME280;59542;37.950;-122.338;2023-01-27T05:01:06;102628.25;;;10.46;57.54
70009;BME280;59542;37.950;-122.338;2023-01-27T05:03:32;102631.66;;;10.65;57.02
70009;BME280;59542;37.950;-122.338;2023-01-27T05:05:58;102626.13;;;10.24;58.06
70009;BME280;59542;37.950;-122.338;2023-01-27T05:08:24;102625.03;;;10.35;57.66
70009;BME280;59542;37.950;-122.338;2023-01-27T05:10:51;102617.91;;;9.91;59.51
70009;BME280;59542;37.950;-122.338;2023-01-27T05:13:17;102615.03;;;10.19;58.29
70009;BME280;59542;37.950;-122.338;2023-01-27T05:15:43;102618.94;;;9.46;60.95
70009;BME280;59542;37.950;-122.338;2023-01-27T05:18:09;102618.91;;;9.64;60.27
70009;BME280;59542;37.950;-122.338;2023-01-27T05:20:36;102616.72;;;9.42;61.20
70009;BME280;59542;37.950;-122.338;2023-01-27T05:23:02;102608.03;;;9.40;61.03
70009;BME280;59542;37.950;-122.338;2023-01-27T05:25:47;102617.09;;;9.47;60.91
70009;BME280;59542;37.950;-122.338;2023-01-27T05:28:13;102609.75;;;9.05;62.21
70009;BME280;59542;37.950;-122.338;2023-01-27T05:30:39;102607.94;;;9.49;60.96
70009;BME280;59542;37.950;-122.338;2023-01-27T05:33:05;102619.78;;;9.47;61.12
70009;BME280;59542;37.950;-122.338;2023-01-27T05:35:34;102620.03;;;9.18;62.07
70009;BME280;59542;37.950;-122.338;2023-01-27T05:38:01;102616.59;;;9.25;61.44
70009;BME280;59542;37.950;-122.338;2023-01-27T05:40:28;102625.44;;;8.90;62.94
70009;BME280;59542;37.950;-122.338;2023-01-27T05:42:54;102614.53;;;8.84;62.85
70009;BME280;59542;37.950;-122.338;2023-01-27T05:45:21;102616.59;;;9.08;62.20
70009;BME280;59542;37.950;-122.338;2023-01-27T05:47:50;102616.72;;;9.42;60.92
70009;BME280;59542;37.950;-122.338;2023-01-27T05:50:17;102618.22;;;9.62;60.66
70009;BME280;59542;37.950;-122.338;2023-01-27T05:52:44;102610.38;;;9.43;60.50
70009;BME280;59542;37.950;-122.338;2023-01-27T05:55:10;102610.44;;;9.77;59.29
70009;BME280;59542;37.950;-122.338;2023-01-27T05:57:36;102606.47;;;9.81;59.60
70009;BME280;59542;37.950;-122.338;2023-01-27T06:00:03;102601.97;;;9.82;59.01
70009;BME280;59542;37.950;-122.338;2023-01-27T06:02:29;102598.13;;;9.58;59.51
70009;BME280;59542;37.950;-122.338;2023-01-27T06:04:55;102606.50;;;9.37;60.30
70009;BME280;59542;37.950;-122.338;2023-01-27T06:07:22;102603.19;;;9.61;59.29
70009;BME280;59542;37.950;-122.338;2023-01-27T06:09:48;102599.25;;;9.30;60.42
70009;BME280;59542;37.950;-122.338;2023-01-27T06:12:15;102602.69;;;9.40;59.78
70009;BME280;59542;37.950;-122.338;2023-01-27T06:14:41;102596.38;;;9.05;60.87
70009;BME280;59542;37.950;-122.338;2023-01-27T06:17:07;102605.84;;;8.99;61.37
70009;BME280;59542;37.950;-122.338;2023-01-27T06:19:33;102602.56;;;9.06;61.28
70009;BME280;59542;37.950;-122.338;2023-01-27T06:22:00;102597.28;;;8.96;61.35
70009;BME280;59542;37.950;-122.338;2023-01-27T06:24:27;102595.00;;;9.01;61.24
70009;BME280;59542;37.950;-122.338;2023-01-27T06:26:54;102593.69;;;8.87;61.61
70009;BME280;59542;37.950;-122.338;2023-01-27T06:29:20;102601.56;;;8.89;61.41
70009;BME280;59542;37.950;-122.338;2023-01-27T06:31:47;102611.69;;;8.85;61.79
70009;BME280;59542;37.950;-122.338;2023-01-27T06:34:13;102615.13;;;8.78;61.91
70009;BME280;59542;37.950;-122.338;2023-01-27T06:36:39;102617.91;;;8.58;62.23
70009;BME280;59542;37.950;-122.338;2023-01-27T06:39:05;102619.31;;;8.62;62.18
70009;BME280;59542;37.950;-122.338;2023-01-27T06:41:32;102611.66;;;8.12;63.42
70009;BME280;59542;37.950;-122.338;2023-01-27T06:43:58;102613.00;;;7.89;64.33
70009;BME280;59542;37.950;-122.338;2023-01-27T06:46:24;102623.34;;;8.02;64.02
70009;BME280;59542;37.950;-122.338;2023-01-27T06:48:50;102624.88;;;8.41;62.47
70009;BME280;59542;37.950;-122.338;2023-01-27T06:51:17;102630.38;;;8.40;62.21
70009;BME280;59542;37.950;-122.338;2023-01-27T06:53:43;102615.34;;;8.66;61.24
70009;BME280;59542;37.950;-122.338;2023-01-27T06:56:09;102620.84;;;8.83;60.49
70009;BME280;59542;37.950;-122.338;2023-01-27T06:58:35;102615.25;;;8.76;60.49
70009;BME280;59542;37.950;-122.338;2023-01-27T07:01:04;102611.69;;;8.67;60.47
70009;BME280;59542;37.950;-122.338;2023-01-27T07:03:31;102610.63;;;8.78;59.89
70009;BME280;59542;37.950;-122.338;2023-01-27T07:05:57;102611.59;;;8.77;59.88
70009;BME280;59542;37.950;-122.338;2023-01-27T07:08:23;102599.19;;;8.86;59.65
70009;BME280;59542;37.950;-122.338;2023-01-27T07:10:49;102604.53;;;8.86;59.40
70009;BME280;59542;37.950;-122.338;2023-01-27T07:13:16;102610.41;;;8.89;59.15
70009;BME280;59542;37.950;-122.338;2023-01-27T07:15:43;102603.63;;;8.95;58.99
70009;BME280;59542;37.950;-122.338;2023-01-27T07:18:10;102603.47;;;8.24;60.93
70009;BME280;59542;37.950;-122.338;2023-01-27T07:20:39;102599.56;;;8.18;61.48
70009;BME280;59542;37.950;-122.338;2023-01-27T07:23:06;102596.00;;;7.90;61.91
70009;BME280;59542;37.950;-122.338;2023-01-27T07:25:33;102605.34;;;7.57;63.64
70009;BME280;59542;37.950;-122.338;2023-01-27T07:28:00;102613.44;;;7.75;62.96
70009;BME280;59542;37.950;-122.338;2023-01-27T07:30:27;102608.25;;;7.83;62.69
70009;BME280;59542;37.950;-122.338;2023-01-27T07:32:54;102602.41;;;8.07;62.05
70009;BME280;59542;37.950;-122.338;2023-01-27T07:35:21;102615.56;;;8.18;61.32
70009;BME280;59542;37.950;-122.338;2023-01-27T07:37:48;102610.72;;;8.31;60.85
70009;BME280;59542;37.950;-122.338;2023-01-27T07:40:14;102611.00;;;8.38;61.05
70009;BME280;59542;37.950;-122.338;2023-01-27T07:42:41;102617.97;;;8.49;60.38
70009;BME280;59542;37.950;-122.338;2023-01-27T07:45:08;102608.88;;;8.41;60.34
70009;BME280;59542;37.950;-122.338;2023-01-27T07:47:34;102610.66;;;8.51;60.01
70009;BME280;59542;37.950;-122.338;2023-01-27T07:50:00;102603.47;;;8.24;60.47
70009;BME280;59542;37.950;-122.338;2023-01-27T07:52:27;102603.06;;;8.18;60.52
70009;BME280;59542;37.950;-122.338;2023-01-27T07:54:53;102600.19;;;8.30;60.30
70009;BME280;59542;37.950;-122.338;2023-01-27T07:57:19;102595.69;;;8.03;60.86
70009;BME280;59542;37.950;-122.338;2023-01-27T07:59:45;102587.53;;;8.04;61.06
70009;BME280;59542;37.950;-122.338;2023-01-27T08:02:12;102594.09;;;8.10;61.03
70009;BME280;59542;37.950;-122.338;2023-01-27T08:04:38;102585.19;;;8.29;60.28
70009;BME280;59542;37.950;-122.338;2023-01-27T08:07:05;102580.13;;;8.26;60.61
70009;BME280;59542;37.950;-122.338;2023-01-27T08:09:31;102572.75;;;8.10;60.87
70009;BME280;59542;37.950;-122.338;2023-01-27T08:11:58;102570.81;;;8.12;60.83
70009;BME280;59542;37.950;-122.338;2023-01-27T08:14:24;102569.16;;;8.01;61.09
70009;BME280;59542;37.950;-122.338;2023-01-27T08:16:50;102559.00;;;7.77;61.44
70009;BME280;59542;37.950;-122.338;2023-01-27T08:19:16;102559.78;;;7.97;61.19
70009;BME280;59542;37.950;-122.338;2023-01-27T08:21:43;102561.72;;;7.67;62.03
70009;BME280;59542;37.950;-122.338;2023-01-27T08:24:10;102560.22;;;7.46;62.92
70009;BME280;59542;37.950;-122.338;2023-01-27T08:26:37;102565.22;;;7.58;62.88
70009;BME280;59542;37.950;-122.338;2023-01-27T08:29:03;102556.81;;;7.53;63.56
70009;BME280;59542;37.950;-122.338;2023-01-27T08:31:30;102561.88;;;7.56;63.67
70009;BME280;59542;37.950;-122.338;2023-01-27T08:33:56;102558.75;;;7.71;63.30
70009;BME280;59542;37.950;-122.338;2023-01-27T08:36:23;102560.38;;;7.81;62.98
70009;BME280;59542;37.950;-122.338;2023-01-27T08:38:50;102550.97;;;7.87;62.75
70009;BME280;59542;37.950;-122.338;2023-01-27T08:41:19;102556.84;;;7.90;62.73
70009;BME280;59542;37.950;-122.338;2023-01-27T08:43:47;102540.34;;;7.77;63.14
70009;BME280;59542;37.950;-122.338;2023-01-27T08:46:13;102545.78;;;7.85;63.02
70009;BME280;59542;37.950;-122.338;2023-01-27T08:48:40;102539.03;;;7.91;62.65
70009;BME280;59542;37.950;-122.338;2023-01-27T08:51:08;102540.19;;;7.88;62.80
70009;BME280;59542;37.950;-122.338;2023-01-27T08:53:36;102544.47;;;7.99;62.58
70009;BME280;59542;37.950;-122.338;2023-01-27T08:56:06;102543.81;;;8.15;61.95
70009;BME280;59542;37.950;-122.338;2023-01-27T08:58:33;102540.00;;;8.00;62.24
70009;BME280;59542;37.950;-122.338;2023-01-27T09:01:00;102539.13;;;7.99;62.07
70009;BME280;59542;37.950;-122.338;2023-01-27T09:03:28;102538.38;;;8.16;61.43
70009;BME280;59542;37.950;-122.338;2023-01-27T09:05:54;102533.69;;;7.54;63.43
70009;BME280;59542;37.950;-122.338;2023-01-27T09:08:20;102528.28;;;7.83;62.43
70009;BME280;59542;37.950;-122.338;2023-01-27T09:10:47;102536.81;;;7.86;62.52
70009;BME280;59542;37.950;-122.338;2023-01-27T09:13:13;102526.31;;;7.75;62.83
70009;BME280;59542;37.950;-122.338;2023-01-27T09:15:42;102525.34;;;7.76;63.03
70009;BME280;59542;37.950;-122.338;2023-01-27T09:18:09;102525.75;;;7.72;63.31
70009;BME280;59542;37.950;-122.338;2023-01-27T09:20:35;102528.50;;;7.52;64.36
70009;BME280;59542;37.950;-122.338;2023-01-27T09:23:03;102525.75;;;7.44;64.92
70009;BME280;59542;37.950;-122.338;2023-01-27T09:25:30;102536.31;;;7.63;64.47
70009;BME280;59542;37.950;-122.338;2023-01-27T09:27:57;102532.59;;;7.47;64.55
70009;BME280;59542;37.950;-122.338;2023-01-27T09:30:25;102524.25;;;7.69;63.75
70009;BME280;59542;37.950;-122.338;2023-01-27T09:32:56;102531.50;;;7.77;63.45
70009;BME280;59542;37.950;-122.338;2023-01-27T09:35:22;102527.28;;;7.84;63.12
70009;BME280;59542;37.950;-122.338;2023-01-27T09:37:53;102531.88;;;7.91;62.76
70009;BME280;59542;37.950;-122.338;2023-01-27T09:45:48;102521.34;;;7.90;62.68
70009;BME280;59542;37.950;-122.338;2023-01-27T09:50:57;102517.63;;;7.83;62.50
70009;BME280;59542;37.950;-122.338;2023-01-27T10:01:52;102521.56;;;8.06;63.38
70009;BME280;59542;37.950;-122.338;2023-01-27T10:07:40;102529.25;;;7.82;63.95
70009;BME280;59542;37.950;-122.338;2023-01-27T10:13:12;102517.25;;;7.68;66.10
70009;BME280;59542;37.950;-122.338;2023-01-27T10:21:42;102517.06;;;7.79;65.51
70009;BME280;59542;37.950;-122.338;2023-01-27T10:26:49;102513.00;;;7.75;65.33
70009;BME280;59542;37.950;-122.338;2023-01-27T10:29:23;102517.78;;;7.72;65.49
70009;BME280;59542;37.950;-122.338;2023-01-27T10:34:32;102509.53;;;7.65;65.56
70009;BME280;59542;37.950;-122.338;2023-01-27T10:40:04;102507.69;;;7.65;65.50
70009;BME280;59542;37.950;-122.338;2023-01-27T10:45:17;102507.69;;;7.65;65.71
70009;BME280;59542;37.950;-122.338;2023-01-27T10:48:05;102504.56;;;7.80;66.00
70009;BME280;59542;37.950;-122.338;2023-01-27T10:58:54;102502.50;;;7.64;67.65
70009;BME280;59542;37.950;-122.338;2023-01-27T11:01:31;102498.44;;;7.70;67.62
70009;BME280;59542;37.950;-122.338;2023-01-27T11:07:16;102501.41;;;7.66;67.71
70009;BME280;59542;37.950;-122.338;2023-01-27T11:09:59;102498.84;;;7.65;67.84
70009;BME280;59542;37.950;-122.338;2023-01-27T11:12:36;102496.16;;;7.75;67.52
70009;BME280;59542;37.950;-122.338;2023-01-27T11:15:23;102487.19;;;7.76;67.37
70009;BME280;59542;37.950;-122.338;2023-01-27T11:18:03;102485.00;;;7.61;68.32
70009;BME280;59542;37.950;-122.338;2023-01-27T11:20:38;102477.28;;;7.58;68.40
70009;BME280;59542;37.950;-122.338;2023-01-27T11:26:00;102481.59;;;7.69;68.19
70009;BME280;59542;37.950;-122.338;2023-01-27T11:31:55;102479.69;;;7.61;68.29
70009;BME280;59542;37.950;-122.338;2023-01-27T11:36:51;102479.56;;;7.53;68.51
70009;BME280;59542;37.950;-122.338;2023-01-27T11:39:17;102477.19;;;7.50;68.79
70009;BME280;59542;37.950;-122.338;2023-01-27T11:41:49;102472.44;;;7.44;68.87
70009;BME280;59542;37.950;-122.338;2023-01-27T11:44:30;102477.19;;;7.50;68.34
70009;BME280;59542;37.950;-122.338;2023-01-27T11:46:57;102476.72;;;7.55;67.94
70009;BME280;59542;37.950;-122.338;2023-01-27T11:49:30;102464.59;;;7.43;67.81
70009;BME280;59542;37.950;-122.338;2023-01-27T11:52:05;102467.13;;;7.44;67.62
70009;BME280;59542;37.950;-122.338;2023-01-27T11:54:45;102467.69;;;7.38;67.32
70009;BME280;59542;37.950;-122.338;2023-01-27T11:57:19;102477.91;;;7.43;67.06
70009;BME280;59542;37.950;-122.338;2023-01-27T11:59:49;102484.25;;;7.32;67.04
70009;BME280;59542;37.950;-122.338;2023-01-27T12:05:28;102481.75;;;7.21;67.96
70009;BME280;59542;37.950;-122.338;2023-01-27T12:07:57;102481.22;;;7.17;67.87
70009;BME280;59542;37.950;-122.338;2023-01-27T12:10:37;102480.38;;;7.17;67.67
70009;BME280;59542;37.950;-122.338;2023-01-27T12:13:20;102481.63;;;7.12;67.73
70009;BME280;59542;37.950;-122.338;2023-01-27T12:15:53;102475.31;;;7.13;67.74
70009;BME280;59542;37.950;-122.338;2023-01-27T12:18:21;102489.91;;;7.09;67.60
70009;BME280;59542;37.950;-122.338;2023-01-27T12:20:56;102480.25;;;7.08;67.52
70009;BME280;59542;37.950;-122.338;2023-01-27T12:23:30;102484.88;;;7.06;67.55
70009;BME280;59542;37.950;-122.338;2023-01-27T12:26:03;102486.06;;;7.31;67.50
70009;BME280;59542;37.950;-122.338;2023-01-27T12:28:40;102480.66;;;7.13;67.82
70009;BME280;59542;37.950;-122.338;2023-01-27T12:31:13;102477.31;;;7.11;68.25
70009;BME280;59542;37.950;-122.338;2023-01-27T12:33:45;102476.84;;;7.26;68.69
70009;BME280;59542;37.950;-122.338;2023-01-27T12:36:18;102477.56;;;7.08;70.33
70009;BME280;59542;37.950;-122.338;2023-01-27T12:38:56;102462.69;;;7.25;69.77
70009;BME280;59542;37.950;-122.338;2023-01-27T12:41:30;102463.09;;;7.21;70.42
70009;BME280;59542;37.950;-122.338;2023-01-27T12:44:07;102461.25;;;7.31;70.40
70009;BME280;59542;37.950;-122.338;2023-01-27T12:46:34;102462.66;;;7.35;70.41
70009;BME280;59542;37.950;-122.338;2023-01-27T12:49:10;102462.47;;;7.46;71.47
70009;BME280;59542;37.950;-122.338;2023-01-27T12:51:40;102462.16;;;7.49;71.80
70009;BME280;59542;37.950;-122.338;2023-01-27T12:54:26;102454.94;;;7.69;71.75
70009;BME280;59542;37.950;-122.338;2023-01-27T12:56:55;102456.34;;;7.73;71.68
70009;BME280;59542;37.950;-122.338;2023-01-27T12:59:26;102452.00;;;7.72;72.14
70009;BME280;59542;37.950;-122.338;2023-01-27T13:04:41;102440.00;;;7.86;72.85
70009;BME280;59542;37.950;-122.338;2023-01-27T13:07:16;102427.53;;;8.04;72.98
70009;BME280;59542;37.950;-122.338;2023-01-27T13:09:56;102437.34;;;8.04;73.25
70009;BME280;59542;37.950;-122.338;2023-01-27T13:12:28;102425.25;;;8.09;73.36
70009;BME280;59542;37.950;-122.338;2023-01-27T13:15:13;102417.56;;;8.24;75.03
70009;BME280;59542;37.950;-122.338;2023-01-27T13:25:48;102386.81;;;8.73;82.83
70009;BME280;59542;37.950;-122.338;2023-01-27T13:28:33;102376.44;;;8.70;83.60
70009;BME280;59542;37.950;-122.338;2023-01-27T13:31:06;102383.38;;;8.81;83.84
70009;BME280;59542;37.950;-122.338;2023-01-27T13:34:20;102379.50;;;8.76;84.62
70009;BME280;59542;37.950;-122.338;2023-01-27T13:36:54;102375.63;;;8.96;84.04
70009;BME280;59542;37.950;-122.338;2023-01-27T13:42:45;102375.88;;;9.11;84.28
70009;BME280;59542;37.950;-122.338;2023-01-27T13:53:57;102369.47;;;9.38;83.63
70009;BME280;59542;37.950;-122.338;2023-01-27T14:02:00;102351.22;;;9.25;84.98
70009;BME280;59542;37.950;-122.338;2023-01-27T14:04:52;102342.69;;;9.21;85.09
70009;BME280;59542;37.950;-122.338;2023-01-27T14:10:39;102347.25;;;9.37;83.85
70009;BME280;59542;37.950;-122.338;2023-01-27T14:21:58;102366.84;;;9.46;83.34
70009;BME280;59542;37.950;-122.338;2023-01-27T14:24:38;102365.84;;;9.47;83.58
70009;BME280;59542;37.950;-122.338;2023-01-27T14:29:51;102376.25;;;9.58;83.05
70009;BME280;59542;37.950;-122.338;2023-01-27T14:32:45;102385.94;;;9.59;82.59
70009;BME280;59542;37.950;-122.338;2023-01-27T14:38:29;102374.25;;;9.60;81.77
70009;BME280;59542;37.950;-122.338;2023-01-27T14:41:09;102380.16;;;9.38;82.60
70009;BME280;59542;37.950;-122.338;2023-01-27T14:46:35;102370.91;;;9.58;81.59